createdAt,value
2018-10-07T00:01:02.757Z,5.70
2018-10-07T00:04:06.155Z,7.10
2018-10-07T00:07:09.803Z,6.93
2018-10-07T00:10:13.304Z,5.47
2018-10-07T00:13:16.785Z,9.57
2018-10-07T00:16:20.413Z,7.40
2018-10-07T00:19:23.951Z,7.77
2018-10-07T00:22:27.383Z,6.90
2018-10-07T00:25:30.772Z,6.70
2018-10-07T00:28:34.193Z,7.30
2018-10-07T00:31:42.970Z,8.53
2018-10-07T00:34:47.472Z,7.87
2018-10-07T00:37:50.784Z,5.78
2018-10-07T00:40:54.273Z,6.10
2018-10-07T00:43:57.815Z,9.95
2018-10-07T00:47:01.314Z,8.40
2018-10-07T00:50:04.825Z,7.97
2018-10-07T00:53:08.231Z,6.70
2018-10-07T00:56:11.746Z,6.97
2018-10-07T00:59:15.148Z,6.37
2018-10-07T01:02:18.557Z,7.67
2018-10-07T01:05:21.956Z,5.80
2018-10-07T01:08:25.447Z,9.00
2018-10-07T01:11:28.878Z,7.70
2018-10-07T01:14:32.219Z,8.27
2018-10-07T01:17:35.664Z,6.87
2018-10-07T01:20:39.098Z,5.93
2018-10-07T01:23:42.533Z,6.37
2018-10-07T01:26:46.048Z,7.63
2018-10-07T01:29:49.437Z,7.27
2018-10-07T01:32:54.773Z,6.30
2018-10-07T01:35:58.502Z,7.15
2018-10-07T01:39:01.905Z,8.83
2018-10-07T01:42:05.328Z,5.43
2018-10-07T01:45:08.723Z,6.53
2018-10-07T01:48:12.090Z,5.70
2018-10-07T01:51:15.503Z,5.80
2018-10-07T01:54:18.890Z,6.10
2018-10-07T01:57:22.298Z,6.00
2018-10-07T02:00:25.693Z,7.70
2018-10-07T02:03:29.093Z,6.37
2018-10-07T02:06:32.492Z,6.43
2018-10-07T02:09:35.894Z,7.90
2018-10-07T02:12:39.326Z,7.12
2018-10-07T02:15:42.701Z,6.03
2018-10-07T02:18:46.092Z,5.83
2018-10-07T02:21:49.561Z,6.33
2018-10-07T02:24:52.897Z,6.17
2018-10-07T02:27:56.313Z,6.13
2018-10-07T02:30:59.847Z,7.72
2018-10-07T02:34:03.411Z,6.70
2018-10-07T02:37:06.937Z,5.97
2018-10-07T02:40:10.413Z,6.40
2018-10-07T02:43:13.957Z,7.20
2018-10-07T02:46:17.440Z,8.70
2018-10-07T02:49:20.956Z,7.30
2018-10-07T02:52:29.713Z,6.03
2018-10-07T02:55:33.274Z,7.00
2018-10-07T02:58:36.768Z,5.40
2018-10-07T03:01:40.352Z,6.07
2018-10-07T03:04:43.909Z,8.08
2018-10-07T03:07:49.020Z,5.80
2018-10-07T03:10:52.511Z,7.03
2018-10-07T03:13:56.001Z,6.33
2018-10-07T03:16:59.520Z,6.12
2018-10-07T03:20:03.045Z,6.67
2018-10-07T03:23:06.582Z,7.10
2018-10-07T03:26:10.027Z,6.87
2018-10-07T03:29:13.555Z,7.50
2018-10-07T03:32:17.155Z,7.63
2018-10-07T03:35:20.691Z,6.50
2018-10-07T03:38:24.152Z,8.07
2018-10-07T03:41:27.650Z,7.90
2018-10-07T03:44:31.135Z,7.43
2018-10-07T03:47:34.729Z,7.70
2018-10-07T03:50:38.251Z,7.57
2018-10-07T03:53:41.740Z,6.37
2018-10-07T03:56:45.242Z,9.23
2018-10-07T03:59:48.817Z,6.60
2018-10-07T04:02:52.357Z,6.17
2018-10-07T04:05:55.884Z,6.17
2018-10-07T04:08:59.359Z,6.35
2018-10-07T04:12:02.958Z,7.47
2018-10-07T04:15:06.496Z,6.50
2018-10-07T04:18:10.003Z,6.50
2018-10-07T04:21:13.468Z,7.43
2018-10-07T04:24:16.963Z,8.63
2018-10-07T04:27:20.487Z,6.57
2018-10-07T04:30:23.982Z,6.13
2018-10-07T04:33:27.473Z,7.30
2018-10-07T04:36:31.873Z,9.23
2018-10-07T04:39:35.286Z,6.93
2018-10-07T04:42:38.725Z,9.23
2018-10-07T04:45:42.195Z,6.17
2018-10-07T04:48:45.593Z,6.87
2018-10-07T04:51:48.995Z,8.77
2018-10-07T04:54:52.394Z,7.80
2018-10-07T04:57:55.887Z,6.63
2018-10-07T05:00:59.426Z,6.80
2018-10-07T05:04:02.991Z,5.83
2018-10-07T05:07:06.714Z,6.00
2018-10-07T05:10:21.678Z,5.95
2018-10-07T05:14:01.570Z,7.53
2018-10-07T05:17:05.110Z,7.10
2018-10-07T05:20:08.577Z,6.60
2018-10-07T05:23:12.067Z,6.07
2018-10-07T05:26:15.559Z,6.30
2018-10-07T05:29:19.098Z,7.03
2018-10-07T05:32:22.551Z,7.70
2018-10-07T05:35:25.946Z,7.27
2018-10-07T05:38:29.393Z,5.93
2018-10-07T05:41:32.901Z,6.60
2018-10-07T05:44:36.486Z,6.40
2018-10-07T05:47:39.890Z,7.17
2018-10-07T05:50:43.400Z,7.37
2018-10-07T05:53:46.892Z,7.00
2018-10-07T05:56:50.410Z,8.67
2018-10-07T05:59:53.979Z,6.97
2018-10-07T06:03:07.854Z,7.00
2018-10-07T06:06:11.403Z,6.17
2018-10-07T06:09:18.979Z,9.60
2018-10-07T06:12:22.483Z,10.05
2018-10-07T06:15:29.549Z,8.40
2018-10-07T06:18:33.133Z,6.97
2018-10-07T06:21:36.705Z,8.70
2018-10-07T06:24:40.253Z,7.90
2018-10-07T06:27:44.603Z,7.37
2018-10-07T06:30:48.108Z,9.60
2018-10-07T06:33:51.603Z,12.00
2018-10-07T06:36:56.143Z,9.37
2018-10-07T06:39:59.606Z,7.90
2018-10-07T06:43:03.101Z,8.88
2018-10-07T06:46:06.710Z,7.50
2018-10-07T06:49:10.184Z,8.90
2018-10-07T06:52:13.603Z,6.70
2018-10-07T06:55:16.999Z,8.50
2018-10-07T06:58:20.423Z,7.67
2018-10-07T07:01:23.888Z,8.90
2018-10-07T07:04:28.320Z,8.23
2018-10-07T07:07:31.902Z,7.47
2018-10-07T07:10:35.302Z,7.97
2018-10-07T07:13:38.788Z,8.90
2018-10-07T07:16:42.417Z,8.70
2018-10-07T07:19:45.906Z,9.47
2018-10-07T07:22:49.338Z,11.37
2018-10-07T07:25:52.716Z,9.43
2018-10-07T07:28:56.165Z,9.50
2018-10-07T07:31:59.653Z,9.30
2018-10-07T07:35:03.034Z,9.27
2018-10-07T07:38:06.583Z,9.77
2018-10-07T07:41:10.081Z,10.03
2018-10-07T07:44:13.513Z,12.40
2018-10-07T07:47:17.061Z,11.20
2018-10-07T07:50:20.466Z,9.50
2018-10-07T07:53:23.847Z,10.60
2018-10-07T07:56:27.233Z,13.77
2018-10-07T07:59:30.958Z,10.37
2018-10-07T08:02:34.339Z,10.70
2018-10-07T08:05:37.822Z,10.70
2018-10-07T08:08:41.314Z,13.27
2018-10-07T08:11:44.734Z,10.78
2018-10-07T08:14:48.237Z,14.13
2018-10-07T08:17:51.689Z,13.57
2018-10-07T08:20:55.070Z,9.87
2018-10-07T08:23:58.595Z,12.43
2018-10-07T08:27:02.249Z,10.03
2018-10-07T08:30:05.866Z,9.60
2018-10-07T08:33:09.278Z,13.10
2018-10-07T08:36:12.675Z,9.87
2018-10-07T08:39:16.158Z,12.18
2018-10-07T08:42:19.674Z,8.80
2018-10-07T08:45:23.201Z,8.78
2018-10-07T08:48:27.695Z,13.00
2018-10-07T08:51:31.194Z,12.95
2018-10-07T08:54:34.692Z,8.98
2018-10-07T08:57:38.223Z,10.60
2018-10-07T09:00:41.884Z,9.15
2018-10-07T09:03:45.555Z,11.85
2018-10-07T09:06:48.997Z,9.83
2018-10-07T09:09:53.531Z,12.13
2018-10-07T09:12:57.084Z,12.75
2018-10-07T09:16:00.561Z,8.47
2018-10-07T09:19:04.307Z,8.03
2018-10-07T09:22:07.817Z,9.15
2018-10-07T09:25:11.627Z,10.13
2018-10-07T09:28:15.142Z,11.37
2018-10-07T09:31:18.653Z,10.88
2018-10-07T09:34:22.135Z,11.37
2018-10-07T09:37:25.589Z,10.50
2018-10-07T09:40:29.075Z,9.40
2018-10-07T09:43:32.634Z,11.77
2018-10-07T09:46:36.243Z,10.57
2018-10-07T09:49:39.998Z,9.03
2018-10-07T09:52:43.597Z,10.23
2018-10-07T09:55:47.140Z,10.23
2018-10-07T09:58:50.691Z,9.08
2018-10-07T10:01:54.221Z,10.70
2018-10-07T10:04:57.885Z,9.17
2018-10-07T10:08:01.558Z,9.20
2018-10-07T10:11:05.186Z,9.68
2018-10-07T10:14:08.799Z,12.80
2018-10-07T10:17:13.580Z,11.80
2018-10-07T10:20:21.050Z,13.15
2018-10-07T10:24:02.606Z,15.30
2018-10-07T10:27:20.941Z,13.73
2018-10-07T10:30:31.361Z,10.57
2018-10-07T10:33:37.109Z,11.33
2018-10-07T10:37:14.776Z,15.08
2018-10-07T10:40:25.592Z,14.87
2018-10-07T10:43:31.818Z,19.40
2018-10-07T10:46:42.629Z,16.77
2018-10-07T10:49:58.326Z,20.60
2018-10-07T10:53:09.369Z,17.90
2018-10-07T10:56:19.787Z,18.87
2018-10-07T10:59:44.485Z,17.27
2018-10-07T11:03:18.071Z,20.30
2018-10-07T11:06:31.739Z,19.93
2018-10-07T11:10:15.315Z,18.70
2018-10-07T11:13:26.271Z,19.17
2018-10-07T11:16:41.164Z,22.17
2018-10-07T11:19:53.170Z,17.20
2018-10-07T11:23:05.305Z,15.33
2018-10-07T11:27:01.176Z,19.03
2018-10-07T11:30:21.418Z,14.70
2018-10-07T11:33:40.641Z,15.23
2018-10-07T11:36:51.335Z,13.58
2018-10-07T11:41:03.443Z,12.50
2018-10-07T11:44:13.602Z,13.38
2018-10-07T11:47:24.616Z,12.23
2018-10-07T11:51:04.947Z,12.93
2018-10-07T11:54:10.770Z,15.73
2018-10-07T11:57:14.351Z,15.00
2018-10-07T12:00:17.917Z,20.08
2018-10-07T12:03:22.288Z,13.98
2018-10-07T12:06:25.770Z,12.00
2018-10-07T12:09:29.418Z,12.40
2018-10-07T12:12:33.003Z,12.53
2018-10-07T12:15:36.369Z,14.23
2018-10-07T12:18:39.771Z,13.60
2018-10-07T12:21:43.209Z,13.73
2018-10-07T12:27:49.534Z,15.07
2018-10-07T12:30:52.992Z,14.90
2018-10-07T12:33:56.380Z,13.57
2018-10-07T12:36:59.771Z,12.73
2018-10-07T12:40:03.272Z,11.40
2018-10-07T12:43:06.811Z,12.00
2018-10-07T12:46:10.168Z,13.00
2018-10-07T12:49:13.657Z,13.53
2018-10-07T12:52:17.099Z,11.40
2018-10-07T12:55:20.765Z,11.27
2018-10-07T12:58:24.306Z,10.60
2018-10-07T13:01:28.852Z,10.00
2018-10-07T13:04:32.211Z,10.53
2018-10-07T13:07:35.617Z,10.53
2018-10-07T13:10:39.003Z,9.97
2018-10-07T13:13:42.417Z,10.13
2018-10-07T13:16:45.804Z,10.67
2018-10-07T13:19:49.231Z,11.97
2018-10-07T13:22:52.728Z,11.20
2018-10-07T13:25:56.111Z,8.97
2018-10-07T13:28:59.649Z,10.97
2018-10-07T13:32:03.025Z,11.27
2018-10-07T13:35:06.482Z,9.97
2018-10-07T13:38:09.917Z,12.30
2018-10-07T13:41:13.314Z,9.83
2018-10-07T13:44:16.917Z,8.43
2018-10-07T13:47:20.324Z,10.50
2018-10-07T13:50:23.735Z,10.83
2018-10-07T13:53:27.225Z,8.80
2018-10-07T13:56:30.619Z,9.00
2018-10-07T13:59:34.023Z,11.53
2018-10-07T14:02:37.636Z,10.60
2018-10-07T14:05:41.138Z,9.73
2018-10-07T14:08:44.654Z,10.10
2018-10-07T14:11:48.195Z,9.90
2018-10-07T14:14:51.708Z,13.90
2018-10-07T14:17:55.252Z,15.17
2018-10-07T14:20:58.768Z,14.13
2018-10-07T14:24:02.358Z,13.73
2018-10-07T14:27:05.925Z,15.10
2018-10-07T14:30:09.467Z,13.50
2018-10-07T14:33:12.976Z,18.53
2018-10-07T14:36:16.483Z,18.20
2018-10-07T14:39:20.252Z,21.17
2018-10-07T14:42:23.695Z,16.50
2018-10-07T14:45:27.253Z,18.13
2018-10-07T14:48:30.803Z,18.07
2018-10-07T14:51:34.280Z,18.53
2018-10-07T14:54:37.789Z,16.73
2018-10-07T14:57:41.290Z,17.23
2018-10-07T15:00:44.847Z,18.63
2018-10-07T15:03:48.370Z,18.43
2018-10-07T15:06:51.923Z,19.60
2018-10-07T15:09:55.407Z,14.13
2018-10-07T15:12:58.979Z,17.47
2018-10-07T15:16:02.561Z,17.20
2018-10-07T15:19:06.035Z,14.33
2018-10-07T15:22:09.522Z,20.57
2018-10-07T15:25:13.013Z,21.87
2018-10-07T15:28:16.530Z,18.63
2018-10-07T15:31:20.008Z,20.20
2018-10-07T15:34:23.600Z,17.17
2018-10-07T15:37:27.225Z,16.00
2018-10-07T15:40:30.879Z,15.90
2018-10-07T15:43:34.327Z,18.20
2018-10-07T15:46:37.861Z,16.23
2018-10-07T15:49:41.355Z,13.30
2018-10-07T15:52:44.935Z,16.83
2018-10-07T15:55:48.576Z,14.80
2018-10-07T15:58:52.181Z,13.73
2018-10-07T16:01:55.691Z,16.70
2018-10-07T16:04:59.256Z,13.80
2018-10-07T16:08:02.891Z,14.40
2018-10-07T16:11:06.905Z,16.03
2018-10-07T16:14:10.469Z,13.60
2018-10-07T16:17:13.869Z,12.37
2018-10-07T16:20:17.313Z,11.27
2018-10-07T16:23:21.255Z,10.90
2018-10-07T16:26:24.878Z,11.60
2018-10-07T16:29:28.399Z,11.57
2018-10-07T16:32:31.934Z,10.30
2018-10-07T16:35:35.468Z,11.47
2018-10-07T16:38:39.015Z,11.67
2018-10-07T16:41:42.540Z,11.70
2018-10-07T16:44:47.797Z,10.10
2018-10-07T16:47:51.264Z,9.93
2018-10-07T16:50:54.654Z,12.10
2018-10-07T16:53:58.055Z,11.33
2018-10-07T16:57:01.615Z,10.13
2018-10-07T17:00:05.492Z,15.07
2018-10-07T17:03:08.977Z,12.57
2018-10-07T17:06:12.364Z,14.97
2018-10-07T17:09:15.909Z,14.63
2018-10-07T17:12:19.416Z,11.80
2018-10-07T17:15:23.041Z,13.97
2018-10-07T17:18:26.455Z,13.03
2018-10-07T17:21:30.202Z,13.87
2018-10-07T17:24:33.979Z,13.87
2018-10-07T17:27:37.405Z,13.20
2018-10-07T17:30:40.810Z,13.10
2018-10-07T17:33:44.326Z,11.77
2018-10-07T17:36:47.803Z,12.77
2018-10-07T17:39:51.348Z,11.83
2018-10-07T17:42:54.868Z,11.57
2018-10-07T17:45:58.299Z,11.87
2018-10-07T17:49:01.938Z,14.27
2018-10-07T17:52:05.139Z,13.70
2018-10-07T17:55:08.523Z,17.93
2018-10-07T17:58:11.900Z,12.83
2018-10-07T18:01:15.447Z,12.23
2018-10-07T18:04:18.820Z,15.90
2018-10-07T18:07:22.276Z,12.00
2018-10-07T18:10:25.844Z,12.70
2018-10-07T18:13:29.329Z,12.17
2018-10-07T18:16:32.848Z,11.67
2018-10-07T18:19:36.299Z,10.90
2018-10-07T18:22:39.707Z,14.07
2018-10-07T18:25:43.117Z,11.83
2018-10-07T18:28:46.528Z,12.87
2018-10-07T18:31:49.924Z,13.37
2018-10-07T18:34:53.437Z,10.73
2018-10-07T18:37:56.815Z,14.10
2018-10-07T18:41:00.375Z,12.07
2018-10-07T18:44:03.787Z,11.40
2018-10-07T18:47:07.334Z,12.33
2018-10-07T18:50:10.730Z,15.07
2018-10-07T18:53:14.125Z,11.93
2018-10-07T18:56:17.605Z,11.03
2018-10-07T18:59:21.029Z,10.90
2018-10-07T19:02:24.616Z,11.57
2018-10-07T19:05:28.011Z,12.60
2018-10-07T19:08:31.711Z,11.43
2018-10-07T19:11:35.058Z,11.07
2018-10-07T19:14:38.593Z,10.60
2018-10-07T19:17:42.043Z,14.00
2018-10-07T19:20:45.604Z,11.57
2018-10-07T19:23:49.046Z,11.53
2018-10-07T19:26:52.564Z,12.03
2018-10-07T19:29:56.150Z,12.40
2018-10-07T19:32:59.658Z,11.80
2018-10-07T19:36:03.424Z,11.63
2018-10-07T19:39:09.050Z,11.17
2018-10-07T19:42:12.530Z,10.23
2018-10-07T19:45:16.132Z,10.23
2018-10-07T19:48:19.632Z,11.07
2018-10-07T19:51:24.046Z,10.23
2018-10-07T19:54:27.545Z,10.90
2018-10-07T19:57:31.179Z,11.17
2018-10-07T20:00:34.825Z,9.80
2018-10-07T20:03:38.243Z,10.30
2018-10-07T20:06:41.778Z,9.90
2018-10-07T20:09:45.267Z,10.43
2018-10-07T20:12:48.768Z,10.50
2018-10-07T20:15:52.280Z,8.30
2018-10-07T20:18:55.831Z,10.20
2018-10-07T20:21:59.292Z,8.30
2018-10-07T20:25:02.824Z,10.67
2018-10-07T20:28:06.307Z,8.90
2018-10-07T20:31:09.796Z,9.60
2018-10-07T20:34:13.277Z,10.70
2018-10-07T20:37:16.770Z,8.57
2018-10-07T20:40:20.393Z,8.90
2018-10-07T20:43:23.785Z,10.70
2018-10-07T20:46:27.324Z,10.03
2018-10-07T20:49:30.815Z,8.70
2018-10-07T20:52:34.368Z,8.43
2018-10-07T20:55:37.791Z,7.37
2018-10-07T20:58:41.293Z,6.63
2018-10-07T21:01:44.703Z,8.27
2018-10-07T21:04:48.199Z,8.30
2018-10-07T21:07:51.706Z,7.83
2018-10-07T21:10:55.199Z,6.60
2018-10-07T21:13:58.769Z,8.27
2018-10-07T21:17:02.260Z,6.53
2018-10-07T21:20:05.749Z,7.27
2018-10-07T21:23:09.209Z,6.33
2018-10-07T21:26:12.642Z,6.57
2018-10-07T21:29:16.140Z,6.80
2018-10-07T21:32:19.611Z,8.17
2018-10-07T21:35:23.115Z,6.57
2018-10-07T21:38:26.520Z,5.47
2018-10-07T21:41:30.025Z,4.97
2018-10-07T21:44:33.418Z,6.13
2018-10-07T21:47:36.901Z,9.30
2018-10-07T21:50:40.308Z,5.80
2018-10-07T21:53:43.739Z,8.20
2018-10-07T21:56:47.246Z,10.67
2018-10-07T21:59:50.715Z,7.50
2018-10-07T22:02:54.231Z,10.17
2018-10-07T22:05:57.730Z,8.70
2018-10-07T22:09:01.138Z,10.97
2018-10-07T22:12:04.540Z,8.43
2018-10-07T22:15:08.003Z,7.73
2018-10-07T22:18:11.432Z,10.50
2018-10-07T22:21:14.835Z,8.60
2018-10-07T22:24:18.249Z,10.53
2018-10-07T22:27:21.660Z,8.97
2018-10-07T22:30:25.249Z,9.87
2018-10-07T22:33:28.708Z,9.13
2018-10-07T22:36:32.110Z,7.63
2018-10-07T22:39:35.634Z,10.87
2018-10-07T22:42:39.041Z,9.77
2018-10-07T22:45:42.425Z,8.63
2018-10-07T22:48:45.965Z,8.73
2018-10-07T22:51:53.656Z,8.33
2018-10-07T22:54:57.053Z,9.97
2018-10-07T22:58:00.439Z,8.40
2018-10-07T23:01:03.860Z,8.00
2018-10-07T23:04:07.258Z,9.37
2018-10-07T23:07:10.743Z,9.07
2018-10-07T23:10:14.457Z,7.17
2018-10-07T23:13:17.857Z,7.47
2018-10-07T23:16:21.245Z,9.17
2018-10-07T23:19:24.644Z,9.00
2018-10-07T23:22:28.066Z,8.77
2018-10-07T23:25:31.477Z,10.17
2018-10-07T23:28:34.854Z,9.33
2018-10-07T23:31:38.323Z,9.83
2018-10-07T23:34:41.785Z,9.60
2018-10-07T23:37:45.246Z,8.63
2018-10-07T23:40:50.590Z,10.40
2018-10-07T23:43:54.006Z,10.00
2018-10-07T23:46:57.400Z,8.37
2018-10-07T23:50:01.854Z,10.40
2018-10-07T23:53:05.402Z,8.73
2018-10-07T23:56:08.824Z,9.53
2018-10-07T23:59:12.499Z,9.23
